sensor_id;sensor_type;location;lat;lon;timestamp;P1;durP1;ratioP1;P2;durP2;ratioP2
14052;SDS011;7101;51.600;7.310;2023-09-19T00:00:19;2.03;;;1.20;;
14052;SDS011;7101;51.600;7.310;2023-09-19T00:02:51;2.70;;;1.20;;
14052;SDS011;7101;51.600;7.310;2023-09-19T00:05:20;8.10;;;1.75;;
14052;SDS011;7101;51.600;7.310;2023-09-19T00:07:49;6.43;;;1.70;;
14052;SDS011;7101;51.600;7.310;2023-09-19T00:10:19;3.95;;;1.58;;
14052;SDS011;7101;51.600;7.310;2023-09-19T00:12:48;3.35;;;1.35;;
14052;SDS011;7101;51.600;7.310;2023-09-19T00:15:20;3.83;;;1.60;;
14052;SDS011;7101;51.600;7.310;2023-09-19T00:17:52;3.35;;;1.33;;
14052;SDS011;7101;51.600;7.310;2023-09-19T00:20:19;3.47;;;1.48;;
14052;SDS011;7101;51.600;7.310;2023-09-19T00:22:48;7.35;;;1.35;;
14052;SDS011;7101;51.600;7.310;2023-09-19T00:25:18;3.03;;;1.45;;
14052;SDS011;7101;51.600;7.310;2023-09-19T00:27:47;4.45;;;1.58;;
14052;SDS011;7101;51.600;7.310;2023-09-19T00:30:16;6.47;;;1.42;;
14052;SDS011;7101;51.600;7.310;2023-09-19T00:32:47;7.25;;;1.52;;
14052;SDS011;7101;51.600;7.310;2023-09-19T00:35:19;3.28;;;1.30;;
14052;SDS011;7101;51.600;7.310;2023-09-19T00:37:48;6.25;;;1.65;;
14052;SDS011;7101;51.600;7.310;2023-09-19T00:40:16;4.03;;;1.42;;
14052;SDS011;7101;51.600;7.310;2023-09-19T00:42:49;6.43;;;2.03;;
14052;SDS011;7101;51.600;7.310;2023-09-19T00:45:19;4.03;;;1.30;;
14052;SDS011;7101;51.600;7.310;2023-09-19T00:47:48;3.63;;;1.70;;
14052;SDS011;7101;51.600;7.310;2023-09-19T00:50:24;5.10;;;1.42;;
14052;SDS011;7101;51.600;7.310;2023-09-19T00:52:57;9.32;;;1.70;;
14052;SDS011;7101;51.600;7.310;2023-09-19T00:55:25;3.33;;;1.27;;
14052;SDS011;7101;51.600;7.310;2023-09-19T00:58:02;7.55;;;1.60;;
14052;SDS011;7101;51.600;7.310;2023-09-19T01:00:32;9.38;;;1.88;;
14052;SDS011;7101;51.600;7.310;2023-09-19T01:03:00;5.82;;;1.65;;
14052;SDS011;7101;51.600;7.310;2023-09-19T01:05:32;8.73;;;1.50;;
14052;SDS011;7101;51.600;7.310;2023-09-19T01:08:04;2.65;;;0.98;;
14052;SDS011;7101;51.600;7.310;2023-09-19T01:10:35;4.13;;;1.38;;
14052;SDS011;7101;51.600;7.310;2023-09-19T01:13:05;4.85;;;1.48;;
14052;SDS011;7101;51.600;7.310;2023-09-19T01:15:47;6.32;;;1.52;;
14052;SDS011;7101;51.600;7.310;2023-09-19T01:18:26;2.95;;;1.13;;
14052;SDS011;7101;51.600;7.310;2023-09-19T01:21:00;5.85;;;1.60;;
14052;SDS011;7101;51.600;7.310;2023-09-19T01:23:39;10.68;;;1.75;;
14052;SDS011;7101;51.600;7.310;2023-09-19T01:26:38;5.50;;;1.35;;
14052;SDS011;7101;51.600;7.310;2023-09-19T01:29:33;7.60;;;1.52;;
14052;SDS011;7101;51.600;7.310;2023-09-19T01:32:06;17.05;;;2.38;;
14052;SDS011;7101;51.600;7.310;2023-09-19T01:34:44;7.40;;;1.50;;
14052;SDS011;7101;51.600;7.310;2023-09-19T01:37:13;4.47;;;1.60;;
14052;SDS011;7101;51.600;7.310;2023-09-19T01:39:44;7.65;;;1.60;;
14052;SDS011;7101;51.600;7.310;2023-09-19T01:42:18;4.68;;;1.58;;
14052;SDS011;7101;51.600;7.310;2023-09-19T01:44:57;3.58;;;1.50;;
14052;SDS011;7101;51.600;7.310;2023-09-19T01:47:33;7.95;;;1.38;;
14052;SDS011;7101;51.600;7.310;2023-09-19T01:50:07;4.72;;;1.40;;
14052;SDS011;7101;51.600;7.310;2023-09-19T01:52:46;7.55;;;1.58;;
14052;SDS011;7101;51.600;7.310;2023-09-19T01:55:15;7.97;;;1.67;;
14052;SDS011;7101;51.600;7.310;2023-09-19T01:57:48;6.88;;;1.50;;
14052;SDS011;7101;51.600;7.310;2023-09-19T02:00:20;6.95;;;1.60;;
14052;SDS011;7101;51.600;7.310;2023-09-19T02:02:52;3.53;;;1.40;;
14052;SDS011;7101;51.600;7.310;2023-09-19T02:05:23;7.93;;;1.70;;
14052;SDS011;7101;51.600;7.310;2023-09-19T02:07:53;6.47;;;1.45;;
14052;SDS011;7101;51.600;7.310;2023-09-19T02:10:27;6.43;;;1.63;;
14052;SDS011;7101;51.600;7.310;2023-09-19T02:12:55;9.50;;;1.77;;
14052;SDS011;7101;51.600;7.310;2023-09-19T02:15:24;7.90;;;1.60;;
14052;SDS011;7101;51.600;7.310;2023-09-19T02:17:53;9.25;;;1.77;;
14052;SDS011;7101;51.600;7.310;2023-09-19T02:20:23;8.07;;;1.77;;
14052;SDS011;7101;51.600;7.310;2023-09-19T02:22:53;6.63;;;1.73;;
14052;SDS011;7101;51.600;7.310;2023-09-19T02:25:21;8.73;;;1.60;;
14052;SDS011;7101;51.600;7.310;2023-09-19T02:27:49;9.70;;;1.85;;
14052;SDS011;7101;51.600;7.310;2023-09-19T02:30:27;10.20;;;1.70;;
14052;SDS011;7101;51.600;7.310;2023-09-19T02:32:57;7.15;;;1.58;;
14052;SDS011;7101;51.600;7.310;2023-09-19T02:35:28;6.97;;;1.67;;
14052;SDS011;7101;51.600;7.310;2023-09-19T02:37:59;4.55;;;1.55;;
14052;SDS011;7101;51.600;7.310;2023-09-19T02:40:26;9.90;;;1.63;;
14052;SDS011;7101;51.600;7.310;2023-09-19T02:42:54;6.20;;;1.30;;
14052;SDS011;7101;51.600;7.310;2023-09-19T02:45:24;5.38;;;1.63;;
14052;SDS011;7101;51.600;7.310;2023-09-19T02:47:51;4.60;;;1.50;;
14052;SDS011;7101;51.600;7.310;2023-09-19T02:50:22;3.88;;;1.83;;
14052;SDS011;7101;51.600;7.310;2023-09-19T02:52:49;6.90;;;1.40;;
14052;SDS011;7101;51.600;7.310;2023-09-19T02:55:20;9.45;;;2.13;;
14052;SDS011;7101;51.600;7.310;2023-09-19T02:57:47;9.98;;;1.70;;
14052;SDS011;7101;51.600;7.310;2023-09-19T03:00:16;17.95;;;2.00;;
14052;SDS011;7101;51.600;7.310;2023-09-19T03:02:46;6.60;;;1.52;;
14052;SDS011;7101;51.600;7.310;2023-09-19T03:05:13;12.00;;;1.60;;
14052;SDS011;7101;51.600;7.310;2023-09-19T03:07:42;4.53;;;1.63;;
14052;SDS011;7101;51.600;7.310;2023-09-19T03:10:11;8.00;;;2.15;;
14052;SDS011;7101;51.600;7.310;2023-09-19T03:12:38;10.05;;;1.80;;
14052;SDS011;7101;51.600;7.310;2023-09-19T03:15:06;5.85;;;2.20;;
14052;SDS011;7101;51.600;7.310;2023-09-19T03:17:37;5.75;;;1.80;;
14052;SDS011;7101;51.600;7.310;2023-09-19T03:20:09;4.82;;;1.45;;
14052;SDS011;7101;51.600;7.310;2023-09-19T03:22:38;9.05;;;1.92;;
14052;SDS011;7101;51.600;7.310;2023-09-19T03:25:07;5.47;;;1.65;;
14052;SDS011;7101;51.600;7.310;2023-09-19T03:27:37;7.45;;;2.22;;
14052;SDS011;7101;51.600;7.310;2023-09-19T03:30:05;4.22;;;1.67;;
14052;SDS011;7101;51.600;7.310;2023-09-19T03:32:37;9.05;;;1.90;;
14052;SDS011;7101;51.600;7.310;2023-09-19T03:35:11;3.38;;;1.50;;
14052;SDS011;7101;51.600;7.310;2023-09-19T03:37:39;6.57;;;1.50;;
14052;SDS011;7101;51.600;7.310;2023-09-19T03:40:13;3.97;;;1.52;;
14052;SDS011;7101;51.600;7.310;2023-09-19T03:42:41;10.25;;;1.95;;
14052;SDS011;7101;51.600;7.310;2023-09-19T03:45:09;4.18;;;1.38;;
14052;SDS011;7101;51.600;7.310;2023-09-19T03:47:40;5.13;;;1.27;;
14052;SDS011;7101;51.600;7.310;2023-09-19T03:50:08;7.78;;;1.85;;
14052;SDS011;7101;51.600;7.310;2023-09-19T03:52:36;4.60;;;1.40;;
14052;SDS011;7101;51.600;7.310;2023-09-19T03:55:04;4.70;;;1.48;;
14052;SDS011;7101;51.600;7.310;2023-09-19T03:57:34;7.40;;;1.48;;
14052;SDS011;7101;51.600;7.310;2023-09-19T04:00:07;7.45;;;1.48;;
14052;SDS011;7101;51.600;7.310;2023-09-19T04:02:40;8.40;;;1.75;;
14052;SDS011;7101;51.600;7.310;2023-09-19T04:05:09;6.68;;;1.80;;
14052;SDS011;7101;51.600;7.310;2023-09-19T04:07:36;8.35;;;1.90;;
14052;SDS011;7101;51.600;7.310;2023-09-19T04:12:38;7.70;;;1.73;;
14052;SDS011;7101;51.600;7.310;2023-09-19T04:15:05;8.93;;;1.95;;
14052;SDS011;7101;51.600;7.310;2023-09-19T04:17:33;6.13;;;1.88;;
14052;SDS011;7101;51.600;7.310;2023-09-19T04:20:00;9.05;;;1.65;;
14052;SDS011;7101;51.600;7.310;2023-09-19T04:22:29;4.47;;;1.33;;
14052;SDS011;7101;51.600;7.310;2023-09-19T04:24:56;7.07;;;1.50;;
14052;SDS011;7101;51.600;7.310;2023-09-19T04:27:23;3.92;;;1.48;;
14052;SDS011;7101;51.600;7.310;2023-09-19T04:29:51;5.85;;;1.75;;
14052;SDS011;7101;51.600;7.310;2023-09-19T04:32:18;6.90;;;1.60;;
14052;SDS011;7101;51.600;7.310;2023-09-19T04:34:46;5.22;;;1.25;;
14052;SDS011;7101;51.600;7.310;2023-09-19T04:37:14;7.63;;;1.95;;
14052;SDS011;7101;51.600;7.310;2023-09-19T04:39:43;6.68;;;1.50;;
14052;SDS011;7101;51.600;7.310;2023-09-19T04:42:12;5.15;;;1.88;;
14052;SDS011;7101;51.600;7.310;2023-09-19T04:44:47;6.75;;;1.58;;
14052;SDS011;7101;51.600;7.310;2023-09-19T04:47:21;5.97;;;1.65;;
14052;SDS011;7101;51.600;7.310;2023-09-19T04:49:48;9.15;;;1.80;;
14052;SDS011;7101;51.600;7.310;2023-09-19T04:52:17;8.30;;;2.05;;
14052;SDS011;7101;51.600;7.310;2023-09-19T04:54:47;2.17;;;1.40;;
14052;SDS011;7101;51.600;7.310;2023-09-19T04:57:15;10.75;;;1.85;;
14052;SDS011;7101;51.600;7.310;2023-09-19T04:59:42;6.47;;;1.33;;
14052;SDS011;7101;51.600;7.310;2023-09-19T05:02:11;6.95;;;1.45;;
14052;SDS011;7101;51.600;7.310;2023-09-19T05:04:42;6.38;;;1.42;;
14052;SDS011;7101;51.600;7.310;2023-09-19T05:07:09;6.00;;;1.27;;
14052;SDS011;7101;51.600;7.310;2023-09-19T05:09:36;7.40;;;1.52;;
14052;SDS011;7101;51.600;7.310;2023-09-19T05:12:03;9.55;;;1.52;;
14052;SDS011;7101;51.600;7.310;2023-09-19T05:14:35;4.55;;;1.30;;
14052;SDS011;7101;51.600;7.310;2023-09-19T05:17:03;6.93;;;1.55;;
14052;SDS011;7101;51.600;7.310;2023-09-19T05:19:30;7.75;;;1.80;;
14052;SDS011;7101;51.600;7.310;2023-09-19T05:22:00;7.35;;;1.73;;
14052;SDS011;7101;51.600;7.310;2023-09-19T05:24:29;3.05;;;1.30;;
14052;SDS011;7101;51.600;7.310;2023-09-19T05:26:56;7.28;;;1.50;;
14052;SDS011;7101;51.600;7.310;2023-09-19T05:29:24;5.22;;;1.60;;
14052;SDS011;7101;51.600;7.310;2023-09-19T05:31:51;7.78;;;1.60;;
14052;SDS011;7101;51.600;7.310;2023-09-19T05:34:29;10.05;;;2.03;;
14052;SDS011;7101;51.600;7.310;2023-09-19T05:37:20;9.27;;;1.88;;
14052;SDS011;7101;51.600;7.310;2023-09-19T05:39:48;7.07;;;1.83;;
14052;SDS011;7101;51.600;7.310;2023-09-19T05:42:15;6.35;;;1.48;;
14052;SDS011;7101;51.600;7.310;2023-09-19T05:44:42;6.50;;;1.60;;
14052;SDS011;7101;51.600;7.310;2023-09-19T05:47:09;6.05;;;1.63;;
14052;SDS011;7101;51.600;7.310;2023-09-19T05:49:36;7.35;;;1.65;;
14052;SDS011;7101;51.600;7.310;2023-09-19T05:52:04;6.70;;;1.70;;
14052;SDS011;7101;51.600;7.310;2023-09-19T05:54:33;9.73;;;1.73;;
14052;SDS011;7101;51.600;7.310;2023-09-19T05:57:00;5.38;;;1.95;;
14052;SDS011;7101;51.600;7.310;2023-09-19T05:59:33;7.25;;;1.48;;
14052;SDS011;7101;51.600;7.310;2023-09-19T06:02:17;3.67;;;1.50;;
14052;SDS011;7101;51.600;7.310;2023-09-19T06:04:45;3.72;;;1.77;;
14052;SDS011;7101;51.600;7.310;2023-09-19T06:07:12;9.60;;;2.45;;
14052;SDS011;7101;51.600;7.310;2023-09-19T06:09:43;4.47;;;1.70;;
14052;SDS011;7101;51.600;7.310;2023-09-19T06:12:09;6.55;;;1.77;;
14052;SDS011;7101;51.600;7.310;2023-09-19T06:14:42;6.22;;;1.92;;
14052;SDS011;7101;51.600;7.310;2023-09-19T06:17:09;6.55;;;1.63;;
14052;SDS011;7101;51.600;7.310;2023-09-19T06:19:36;6.45;;;1.40;;
14052;SDS011;7101;51.600;7.310;2023-09-19T06:22:14;4.60;;;1.50;;
14052;SDS011;7101;51.600;7.310;2023-09-19T06:24:59;6.82;;;1.73;;
14052;SDS011;7101;51.600;7.310;2023-09-19T06:27:30;6.53;;;1.92;;
14052;SDS011;7101;51.600;7.310;2023-09-19T06:29:57;2.38;;;1.30;;
14052;SDS011;7101;51.600;7.310;2023-09-19T06:32:26;5.40;;;1.58;;
14052;SDS011;7101;51.600;7.310;2023-09-19T06:34:58;5.45;;;1.58;;
14052;SDS011;7101;51.600;7.310;2023-09-19T06:37:28;3.38;;;1.17;;
14052;SDS011;7101;51.600;7.310;2023-09-19T06:39:56;5.35;;;1.52;;
14052;SDS011;7101;51.600;7.310;2023-09-19T06:42:25;8.43;;;1.58;;
14052;SDS011;7101;51.600;7.310;2023-09-19T06:44:54;13.05;;;1.90;;
14052;SDS011;7101;51.600;7.310;2023-09-19T06:47:22;5.32;;;1.70;;
14052;SDS011;7101;51.600;7.310;2023-09-19T06:49:58;5.85;;;1.85;;
14052;SDS011;7101;51.600;7.310;2023-09-19T06:52:27;8.00;;;1.90;;
14052;SDS011;7101;51.600;7.310;2023-09-19T06:54:55;10.75;;;2.33;;
14052;SDS011;7101;51.600;7.310;2023-09-19T06:57:26;8.63;;;1.85;;
14052;SDS011;7101;51.600;7.310;2023-09-19T06:59:53;9.15;;;1.67;;
14052;SDS011;7101;51.600;7.310;2023-09-19T07:02:21;6.28;;;1.73;;
14052;SDS011;7101;51.600;7.310;2023-09-19T07:04:48;6.80;;;1.33;;
14052;SDS011;7101;51.600;7.310;2023-09-19T07:07:20;5.32;;;1.52;;
14052;SDS011;7101;51.600;7.310;2023-09-19T07:10:11;5.85;;;1.80;;
14052;SDS011;7101;51.600;7.310;2023-09-19T07:12:43;11.18;;;2.10;;
14052;SDS011;7101;51.600;7.310;2023-09-19T07:15:10;9.85;;;2.00;;
14052;SDS011;7101;51.600;7.310;2023-09-19T07:17:37;3.63;;;1.35;;
14052;SDS011;7101;51.600;7.310;2023-09-19T07:20:05;5.03;;;1.50;;
14052;SDS011;7101;51.600;7.310;2023-09-19T07:22:33;6.95;;;2.00;;
14052;SDS011;7101;51.600;7.310;2023-09-19T07:25:03;6.80;;;1.98;;
14052;SDS011;7101;51.600;7.310;2023-09-19T07:30:19;4.90;;;1.63;;
14052;SDS011;7101;51.600;7.310;2023-09-19T07:32:57;6.72;;;1.60;;
14052;SDS011;7101;51.600;7.310;2023-09-19T07:35:27;5.60;;;1.60;;
14052;SDS011;7101;51.600;7.310;2023-09-19T07:37:57;6.80;;;1.52;;
14052;SDS011;7101;51.600;7.310;2023-09-19T07:40:26;21.33;;;2.25;;
14052;SDS011;7101;51.600;7.310;2023-09-19T07:42:54;8.25;;;1.70;;
14052;SDS011;7101;51.600;7.310;2023-09-19T07:45:23;8.90;;;1.70;;
14052;SDS011;7101;51.600;7.310;2023-09-19T07:47:51;7.45;;;1.70;;
14052;SDS011;7101;51.600;7.310;2023-09-19T07:50:18;7.57;;;1.67;;
14052;SDS011;7101;51.600;7.310;2023-09-19T07:52:46;5.00;;;1.58;;
14052;SDS011;7101;51.600;7.310;2023-09-19T07:55:16;8.93;;;2.40;;
14052;SDS011;7101;51.600;7.310;2023-09-19T07:57:45;6.05;;;1.67;;
14052;SDS011;7101;51.600;7.310;2023-09-19T08:00:13;5.53;;;1.75;;
14052;SDS011;7101;51.600;7.310;2023-09-19T08:02:44;4.85;;;1.60;;
14052;SDS011;7101;51.600;7.310;2023-09-19T08:05:20;5.55;;;1.42;;
14052;SDS011;7101;51.600;7.310;2023-09-19T08:07:50;8.25;;;1.30;;
14052;SDS011;7101;51.600;7.310;2023-09-19T08:10:17;12.70;;;1.85;;
14052;SDS011;7101;51.600;7.310;2023-09-19T08:12:53;5.47;;;1.58;;
14052;SDS011;7101;51.600;7.310;2023-09-19T08:15:27;7.28;;;1.55;;
14052;SDS011;7101;51.600;7.310;2023-09-19T08:17:58;6.65;;;1.40;;
14052;SDS011;7101;51.600;7.310;2023-09-19T08:20:39;6.28;;;1.42;;
14052;SDS011;7101;51.600;7.310;2023-09-19T08:23:11;5.32;;;1.77;;
14052;SDS011;7101;51.600;7.310;2023-09-19T08:25:43;9.23;;;1.73;;
14052;SDS011;7101;51.600;7.310;2023-09-19T08:28:10;10.55;;;1.50;;
14052;SDS011;7101;51.600;7.310;2023-09-19T08:30:48;4.65;;;1.38;;
14052;SDS011;7101;51.600;7.310;2023-09-19T08:33:24;11.95;;;1.80;;
14052;SDS011;7101;51.600;7.310;2023-09-19T08:35:51;6.68;;;1.40;;
14052;SDS011;7101;51.600;7.310;2023-09-19T08:38:26;5.47;;;1.75;;
14052;SDS011;7101;51.600;7.310;2023-09-19T08:40:56;7.97;;;2.47;;
14052;SDS011;7101;51.600;7.310;2023-09-19T08:43:24;5.85;;;1.50;;
14052;SDS011;7101;51.600;7.310;2023-09-19T08:45:55;10.63;;;1.73;;
14052;SDS011;7101;51.600;7.310;2023-09-19T08:48:31;5.43;;;1.85;;
14052;SDS011;7101;51.600;7.310;2023-09-19T08:51:02;5.82;;;1.80;;
14052;SDS011;7101;51.600;7.310;2023-09-19T08:53:41;6.78;;;1.63;;
14052;SDS011;7101;51.600;7.310;2023-09-19T08:56:18;5.70;;;1.52;;
14052;SDS011;7101;51.600;7.310;2023-09-19T08:58:55;3.38;;;1.33;;
14052;SDS011;7101;51.600;7.310;2023-09-19T09:01:26;11.68;;;1.98;;
14052;SDS011;7101;51.600;7.310;2023-09-19T09:03:56;7.97;;;1.70;;
14052;SDS011;7101;51.600;7.310;2023-09-19T09:06:26;6.50;;;1.85;;
14052;SDS011;7101;51.600;7.310;2023-09-19T09:09:05;7.82;;;1.27;;
14052;SDS011;7101;51.600;7.310;2023-09-19T09:11:34;8.65;;;1.65;;
14052;SDS011;7101;51.600;7.310;2023-09-19T09:14:07;6.32;;;1.48;;
14052;SDS011;7101;51.600;7.310;2023-09-19T09:16:35;8.30;;;1.55;;
14052;SDS011;7101;51.600;7.310;2023-09-19T09:19:04;3.53;;;1.30;;
14052;SDS011;7101;51.600;7.310;2023-09-19T09:21:49;5.28;;;1.63;;
14052;SDS011;7101;51.600;7.310;2023-09-19T09:24:28;9.60;;;2.10;;
14052;SDS011;7101;51.600;7.310;2023-09-19T09:27:03;9.13;;;1.60;;
14052;SDS011;7101;51.600;7.310;2023-09-19T09:29:43;5.57;;;1.60;;
14052;SDS011;7101;51.600;7.310;2023-09-19T09:32:19;5.75;;;1.58;;
14052;SDS011;7101;51.600;7.310;2023-09-19T09:34:52;4.93;;;1.50;;
14052;SDS011;7101;51.600;7.310;2023-09-19T09:37:23;8.57;;;1.52;;
14052;SDS011;7101;51.600;7.310;2023-09-19T09:39:54;7.50;;;1.50;;
14052;SDS011;7101;51.600;7.310;2023-09-19T09:42:45;4.93;;;1.63;;
14052;SDS011;7101;51.600;7.310;2023-09-19T09:45:27;7.97;;;1.88;;
14052;SDS011;7101;51.600;7.310;2023-09-19T09:48:05;5.63;;;1.75;;
14052;SDS011;7101;51.600;7.310;2023-09-19T09:50:45;6.10;;;1.67;;
14052;SDS011;7101;51.600;7.310;2023-09-19T09:53:22;8.18;;;1.83;;
14052;SDS011;7101;51.600;7.310;2023-09-19T09:56:03;9.30;;;1.67;;
14052;SDS011;7101;51.600;7.310;2023-09-19T09:58:35;6.13;;;1.98;;
14052;SDS011;7101;51.600;7.310;2023-09-19T10:01:03;5.82;;;1.38;;
14052;SDS011;7101;51.600;7.310;2023-09-19T10:03:42;5.78;;;1.58;;
14052;SDS011;7101;51.600;7.310;2023-09-19T10:06:23;6.72;;;1.60;;
14052;SDS011;7101;51.600;7.310;2023-09-19T10:12:44;8.32;;;1.83;;
14052;SDS011;7101;51.600;7.310;2023-09-19T10:15:16;5.95;;;1.85;;
14052;SDS011;7101;51.600;7.310;2023-09-19T10:18:24;4.60;;;1.63;;
14052;SDS011;7101;51.600;7.310;2023-09-19T10:20:54;6.50;;;1.58;;
14052;SDS011;7101;51.600;7.310;2023-09-19T10:23:34;10.50;;;1.75;;
14052;SDS011;7101;51.600;7.310;2023-09-19T10:26:06;8.70;;;1.70;;
14052;SDS011;7101;51.600;7.310;2023-09-19T10:28:37;10.25;;;1.55;;
14052;SDS011;7101;51.600;7.310;2023-09-19T10:31:09;4.35;;;1.50;;
14052;SDS011;7101;51.600;7.310;2023-09-19T10:33:39;8.77;;;1.98;;
14052;SDS011;7101;51.600;7.310;2023-09-19T10:36:08;7.32;;;1.70;;
14052;SDS011;7101;51.600;7.310;2023-09-19T10:38:38;7.13;;;1.60;;
14052;SDS011;7101;51.600;7.310;2023-09-19T10:41:09;12.60;;;2.25;;
14052;SDS011;7101;51.600;7.310;2023-09-19T10:43:42;13.70;;;1.70;;
14052;SDS011;7101;51.600;7.310;2023-09-19T10:46:11;4.93;;;1.42;;
14052;SDS011;7101;51.600;7.310;2023-09-19T10:48:42;4.03;;;1.50;;
14052;SDS011;7101;51.600;7.310;2023-09-19T10:51:15;5.68;;;1.70;;
14052;SDS011;7101;51.600;7.310;2023-09-19T10:53:51;4.97;;;1.50;;
14052;SDS011;7101;51.600;7.310;2023-09-19T10:56:25;9.35;;;1.60;;
14052;SDS011;7101;51.600;7.310;2023-09-19T10:59:07;5.88;;;1.48;;
14052;SDS011;7101;51.600;7.310;2023-09-19T11:01:45;5.05;;;1.77;;
14052;SDS011;7101;51.600;7.310;2023-09-19T11:04:24;5.20;;;1.90;;
14052;SDS011;7101;51.600;7.310;2023-09-19T11:07:02;6.35;;;1.98;;
14052;SDS011;7101;51.600;7.310;2023-09-19T11:09:45;5.63;;;1.40;;
14052;SDS011;7101;51.600;7.310;2023-09-19T11:21:51;5.43;;;1.58;;
14052;SDS011;7101;51.600;7.310;2023-09-19T11:24:29;5.18;;;1.70;;
14052;SDS011;7101;51.600;7.310;2023-09-19T11:27:12;8.25;;;1.85;;
14052;SDS011;7101;51.600;7.310;2023-09-19T11:29:43;3.97;;;1.27;;
14052;SDS011;7101;51.600;7.310;2023-09-19T11:32:13;3.38;;;1.27;;
14052;SDS011;7101;51.600;7.310;2023-09-19T11:34:46;4.10;;;1.67;;
14052;SDS011;7101;51.600;7.310;2023-09-19T11:43:39;9.90;;;1.83;;
14052;SDS011;7101;51.600;7.310;2023-09-19T11:46:07;3.85;;;1.30;;
14052;SDS011;7101;51.600;7.310;2023-09-19T11:48:37;4.38;;;1.48;;
14052;SDS011;7101;51.600;7.310;2023-09-19T11:51:19;7.72;;;1.52;;
14052;SDS011;7101;51.600;7.310;2023-09-19T11:53:52;13.68;;;1.85;;
14052;SDS011;7101;51.600;7.310;2023-09-19T11:56:25;4.50;;;1.27;;
14052;SDS011;7101;51.600;7.310;2023-09-19T11:58:55;6.03;;;1.58;;
14052;SDS011;7101;51.600;7.310;2023-09-19T12:01:26;3.33;;;1.10;;
14052;SDS011;7101;51.600;7.310;2023-09-19T12:03:57;8.98;;;1.40;;
14052;SDS011;7101;51.600;7.310;2023-09-19T12:06:25;5.32;;;1.45;;
14052;SDS011;7101;51.600;7.310;2023-09-19T12:08:54;3.67;;;1.65;;
14052;SDS011;7101;51.600;7.310;2023-09-19T12:11:26;4.90;;;1.50;;
14052;SDS011;7101;51.600;7.310;2023-09-19T12:14:01;7.57;;;1.42;;
14052;SDS011;7101;51.600;7.310;2023-09-19T12:16:29;4.57;;;1.60;;
14052;SDS011;7101;51.600;7.310;2023-09-19T12:18:56;3.70;;;1.38;;
14052;SDS011;7101;51.600;7.310;2023-09-19T12:21:25;6.22;;;1.40;;
14052;SDS011;7101;51.600;7.310;2023-09-19T12:24:01;5.38;;;1.75;;
14052;SDS011;7101;51.600;7.310;2023-09-19T12:26:30;3.45;;;1.38;;
14052;SDS011;7101;51.600;7.310;2023-09-19T12:29:13;4.50;;;1.75;;
14052;SDS011;7101;51.600;7.310;2023-09-19T12:31:52;4.78;;;1.45;;
14052;SDS011;7101;51.600;7.310;2023-09-19T12:34:32;6.93;;;1.40;;
14052;SDS011;7101;51.600;7.310;2023-09-19T12:37:04;5.00;;;1.42;;
14052;SDS011;7101;51.600;7.310;2023-09-19T12:39:38;7.72;;;1.92;;
14052;SDS011;7101;51.600;7.310;2023-09-19T12:42:14;4.70;;;1.80;;
14052;SDS011;7101;51.600;7.310;2023-09-19T12:44:54;4.20;;;1.45;;
14052;SDS011;7101;51.600;7.310;2023-09-19T12:47:26;9.93;;;1.73;;
14052;SDS011;7101;51.600;7.310;2023-09-19T12:50:12;3.72;;;1.35;;
14052;SDS011;7101;51.600;7.310;2023-09-19T12:52:44;3.35;;;1.50;;
14052;SDS011;7101;51.600;7.310;2023-09-19T12:55:20;4.07;;;1.15;;
14052;SDS011;7101;51.600;7.310;2023-09-19T12:58:07;7.35;;;1.52;;
14052;SDS011;7101;51.600;7.310;2023-09-19T13:00:39;7.15;;;1.33;;
14052;SDS011;7101;51.600;7.310;2023-09-19T13:03:11;2.88;;;1.05;;
14052;SDS011;7101;51.600;7.310;2023-09-19T13:05:53;5.07;;;1.17;;
14052;SDS011;7101;51.600;7.310;2023-09-19T13:08:25;4.88;;;1.55;;
14052;SDS011;7101;51.600;7.310;2023-09-19T13:11:07;5.25;;;1.35;;
14052;SDS011;7101;51.600;7.310;2023-09-19T13:13:40;6.90;;;1.60;;
14052;SDS011;7101;51.600;7.310;2023-09-19T13:16:19;3.67;;;1.50;;
14052;SDS011;7101;51.600;7.310;2023-09-19T13:18:54;3.95;;;1.13;;
14052;SDS011;7101;51.600;7.310;2023-09-19T13:21:32;5.65;;;1.35;;
14052;SDS011;7101;51.600;7.310;2023-09-19T13:24:18;3.63;;;1.10;;
14052;SDS011;7101;51.600;7.310;2023-09-19T13:27:12;6.85;;;1.33;;
14052;SDS011;7101;51.600;7.310;2023-09-19T13:29:52;3.63;;;1.30;;
14052;SDS011;7101;51.600;7.310;2023-09-19T13:32:24;7.32;;;1.33;;
14052;SDS011;7101;51.600;7.310;2023-09-19T13:35:16;2.33;;;0.93;;
14052;SDS011;7101;51.600;7.310;2023-09-19T13:37:43;5.13;;;1.20;;
14052;SDS011;7101;51.600;7.310;2023-09-19T13:40:17;2.67;;;1.30;;
14052;SDS011;7101;51.600;7.310;2023-09-19T13:42:48;4.03;;;1.17;;
14052;SDS011;7101;51.600;7.310;2023-09-19T14:12:02;3.22;;;0.98;;
14052;SDS011;7101;51.600;7.310;2023-09-19T14:14:34;1.42;;;0.90;;
14052;SDS011;7101;51.600;7.310;2023-09-19T14:17:05;3.22;;;1.20;;
14052;SDS011;7101;51.600;7.310;2023-09-19T14:19:37;5.13;;;1.38;;
14052;SDS011;7101;51.600;7.310;2023-09-19T14:22:13;4.60;;;1.20;;
14052;SDS011;7101;51.600;7.310;2023-09-19T14:24:50;1.65;;;1.05;;
14052;SDS011;7101;51.600;7.310;2023-09-19T14:27:24;2.83;;;0.95;;
14052;SDS011;7101;51.600;7.310;2023-09-19T14:29:53;4.05;;;0.93;;
14052;SDS011;7101;51.600;7.310;2023-09-19T14:32:22;1.77;;;0.98;;
14052;SDS011;7101;51.600;7.310;2023-09-19T14:34:53;4.57;;;0.95;;
14052;SDS011;7101;51.600;7.310;2023-09-19T14:37:20;4.40;;;1.00;;
14052;SDS011;7101;51.600;7.310;2023-09-19T14:39:58;2.03;;;0.80;;
14052;SDS011;7101;51.600;7.310;2023-09-19T14:45:36;3.53;;;0.90;;
14052;SDS011;7101;51.600;7.310;2023-09-19T14:48:19;1.92;;;0.80;;
14052;SDS011;7101;51.600;7.310;2023-09-19T14:50:51;4.38;;;0.93;;
14052;SDS011;7101;51.600;7.310;2023-09-19T14:53:26;2.00;;;0.80;;
14052;SDS011;7101;51.600;7.310;2023-09-19T14:55:59;2.55;;;0.90;;
14052;SDS011;7101;51.600;7.310;2023-09-19T15:03:39;4.72;;;1.27;;
14052;SDS011;7101;51.600;7.310;2023-09-19T15:06:14;3.25;;;0.98;;
14052;SDS011;7101;51.600;7.310;2023-09-19T15:08:43;2.67;;;1.00;;
14052;SDS011;7101;51.600;7.310;2023-09-19T15:11:12;2.08;;;0.60;;
14052;SDS011;7101;51.600;7.310;2023-09-19T15:13:41;3.67;;;0.90;;
14052;SDS011;7101;51.600;7.310;2023-09-19T15:16:23;1.73;;;0.85;;
14052;SDS011;7101;51.600;7.310;2023-09-19T15:18:52;1.60;;;0.63;;
14052;SDS011;7101;51.600;7.310;2023-09-19T15:21:20;2.83;;;0.73;;
14052;SDS011;7101;51.600;7.310;2023-09-19T15:23:50;3.28;;;0.75;;
14052;SDS011;7101;51.600;7.310;2023-09-19T15:26:18;1.83;;;0.88;;
14052;SDS011;7101;51.600;7.310;2023-09-19T15:28:47;2.95;;;0.80;;
14052;SDS011;7101;51.600;7.310;2023-09-19T15:31:14;3.17;;;0.70;;
14052;SDS011;7101;51.600;7.310;2023-09-19T15:33:42;3.60;;;0.70;;
14052;SDS011;7101;51.600;7.310;2023-09-19T15:36:11;2.72;;;1.00;;
14052;SDS011;7101;51.600;7.310;2023-09-19T15:38:55;5.13;;;0.80;;
14052;SDS011;7101;51.600;7.310;2023-09-19T15:41:26;2.28;;;0.70;;
14052;SDS011;7101;51.600;7.310;2023-09-19T15:43:57;2.15;;;0.70;;
14052;SDS011;7101;51.600;7.310;2023-09-19T15:46:27;2.95;;;0.80;;
14052;SDS011;7101;51.600;7.310;2023-09-19T15:48:56;7.10;;;0.80;;
14052;SDS011;7101;51.600;7.310;2023-09-19T15:51:28;4.78;;;0.77;;
14052;SDS011;7101;51.600;7.310;2023-09-19T15:54:16;2.00;;;0.90;;
14052;SDS011;7101;51.600;7.310;2023-09-19T15:56:51;4.47;;;0.80;;
14052;SDS011;7101;51.600;7.310;2023-09-19T15:59:20;2.90;;;0.80;;
14052;SDS011;7101;51.600;7.310;2023-09-19T16:01:49;1.88;;;0.70;;
14052;SDS011;7101;51.600;7.310;2023-09-19T16:04:23;1.15;;;0.68;;
14052;SDS011;7101;51.600;7.310;2023-09-19T16:06:54;1.50;;;0.70;;
14052;SDS011;7101;51.600;7.310;2023-09-19T16:09:21;2.88;;;0.90;;
14052;SDS011;7101;51.600;7.310;2023-09-19T16:11:48;3.03;;;0.90;;
14052;SDS011;7101;51.600;7.310;2023-09-19T16:14:17;1.70;;;0.77;;
14052;SDS011;7101;51.600;7.310;2023-09-19T16:16:44;6.07;;;0.73;;
14052;SDS011;7101;51.600;7.310;2023-09-19T16:19:15;2.47;;;0.60;;
14052;SDS011;7101;51.600;7.310;2023-09-19T16:24:21;0.65;;;0.40;;
14052;SDS011;7101;51.600;7.310;2023-09-19T16:26:54;2.25;;;0.80;;
14052;SDS011;7101;51.600;7.310;2023-09-19T16:29:26;2.00;;;0.70;;
14052;SDS011;7101;51.600;7.310;2023-09-19T16:31:53;4.28;;;0.70;;